Change the Weather History Date:

Friday, February 8, 2013

  Actual Average Record
Temperature  
Mean Temperature 26 °F -  
Max Temperature 28 °F 28 °F 62 °F (1999)
Min Temperature 23 °F 9 °F -21 °F (1971)
Degree Days  
Heating Degree Days 40    
Moisture  
Dew Point 23 °F    
Average Humidity 88    
Maximum Humidity 93    
Minimum Humidity 80    
Precipitation  
Precipitation 0.00 in - - ()
Sea Level Pressure  
Sea Level Pressure 30.26 in    
Wind  
Wind Speed 11 mph (ESE)    
Max Wind Speed 18 mph    
Max Gust Speed 23 mph    
Visibility 10 miles    
Events      
Averages and records for this station are not official NWS values.
T = Trace of Precipitation, MM = Missing Value Source: NWS Daily Summary

Daily Weather History Graph

Daily Weather History Graph

Search for Another Location

Airport or City:

Trip Planner

Search our weather history database for the weather conditions in past years. The results will help you decide how hot, cold, wet, or windy it might be!

Date:

Astronomy

Feb. 08, 2013 Rise Set
Actual Time 7:23 AM CST 5:43 PM CST
Civil Twilight 6:54 AM CST 6:12 PM CST
Nautical Twilight 6:21 AM CST 6:45 PM CST
Astronomical Twilight 5:49 AM CST 7:18 PM CST
Moon 5:54 AM CST (2/8) 4:17 PM CST (2/8)
Length of Visible Light 11h 17m
Length of Day
10h 19m
Waning Crescent, 3% of the Moon is Illuminated
Feb 8
Waning Crescent
Feb 10
New
Feb 17
First Quarter
Feb 25
Full
Mar 4
Last Quarter

Hourly Weather History & Observations

Time (CST) Temp. Windchill Dew Point Humidity Pressure Visibility Wind Dir Wind Speed Gust Speed Precip Events Conditions
12:15 AM 26.6 °F 14.7 °F 23.0 °F 86% 30.23 in 10.0 mi NNE 15.0 mph - N/A   Overcast
12:35 AM 26.6 °F 14.7 °F 23.0 °F 86% 30.23 in 10.0 mi North 15.0 mph - N/A   Overcast
12:55 AM 26.6 °F 15.7 °F 21.2 °F 80% 30.24 in 10.0 mi North 12.7 mph - N/A   Overcast
1:15 AM 26.6 °F 15.2 °F 21.2 °F 80% 30.25 in 10.0 mi North 13.8 mph - N/A   Overcast
1:35 AM 26.6 °F 15.7 °F 23.0 °F 86% 30.26 in 10.0 mi North 12.7 mph 18.4 mph N/A   Overcast
1:55 AM 26.6 °F 16.8 °F 21.2 °F 80% 30.26 in 10.0 mi North 10.4 mph 16.1 mph N/A   Overcast
2:15 AM 26.6 °F 16.2 °F 21.2 °F 80% 30.27 in 10.0 mi NNE 11.5 mph - N/A   Overcast
2:35 AM 26.6 °F 16.8 °F 21.2 °F 80% 30.27 in 10.0 mi North 10.4 mph - N/A   Overcast
2:55 AM 26.6 °F 17.5 °F 21.2 °F 80% 30.27 in 10.0 mi NNE 9.2 mph - N/A   Overcast
3:35 AM 24.8 °F 13.4 °F 21.2 °F 86% 30.27 in 10.0 mi North 12.7 mph - N/A   Overcast
3:55 AM 24.8 °F 15.3 °F 21.2 °F 86% 30.27 in 10.0 mi North 9.2 mph - N/A   Overcast
4:15 AM 24.8 °F 14.6 °F 21.2 °F 86% 30.27 in 10.0 mi North 10.4 mph - N/A   Overcast
4:35 AM 23.0 °F 15.8 °F 21.2 °F 93% 30.28 in 10.0 mi North 5.8 mph - N/A   Mostly Cloudy
4:55 AM 23.0 °F 15.8 °F 21.2 °F 93% 30.28 in 10.0 mi North 5.8 mph - N/A   Overcast
5:15 AM 24.8 °F 17.9 °F 21.2 °F 86% 30.29 in 10.0 mi North 5.8 mph - N/A   Overcast
5:35 AM 24.8 °F 15.3 °F 21.2 °F 86% 30.29 in 10.0 mi North 9.2 mph - N/A   Overcast
5:55 AM 24.8 °F 16.1 °F 21.2 °F 86% 30.29 in 10.0 mi North 8.1 mph - N/A   Overcast
6:15 AM 24.8 °F 17.9 °F 21.2 °F 86% 30.29 in 10.0 mi NNE 5.8 mph - N/A   Overcast
6:35 AM 24.8 °F 16.1 °F 21.2 °F 86% 30.28 in 10.0 mi NE 8.1 mph - N/A   Overcast
6:55 AM 24.8 °F 19.1 °F 21.2 °F 86% 30.30 in 10.0 mi Variable 4.6 mph - N/A   Overcast
7:15 AM 24.8 °F 17.9 °F 21.2 °F 86% 30.30 in 10.0 mi ENE 5.8 mph - N/A   Overcast
7:35 AM 24.8 °F 16.9 °F 21.2 °F 86% 30.31 in 10.0 mi NNE 6.9 mph - N/A   Overcast
7:55 AM 24.8 °F 17.9 °F 21.2 °F 86% 30.32 in 10.0 mi NE 5.8 mph - N/A   Overcast
8:15 AM 24.8 °F 17.9 °F 21.2 °F 86% 30.32 in 10.0 mi East 5.8 mph - N/A   Overcast
8:35 AM 24.8 °F 15.3 °F 21.2 °F 86% 30.32 in 10.0 mi ENE 9.2 mph - N/A   Overcast
8:55 AM 24.8 °F 16.1 °F 21.2 °F 86% 30.32 in 10.0 mi ENE 8.1 mph - N/A   Overcast
9:15 AM 24.8 °F 17.9 °F 21.2 °F 86% 30.33 in 10.0 mi ENE 5.8 mph - N/A   Overcast
9:35 AM 24.8 °F 19.1 °F 21.2 °F 86% 30.33 in 10.0 mi NE 4.6 mph - N/A   Overcast
9:55 AM 24.8 °F 16.9 °F 21.2 °F 86% 30.33 in 10.0 mi East 6.9 mph - N/A   Overcast
10:15 AM 24.8 °F 19.1 °F 21.2 °F 86% 30.33 in 10.0 mi ENE 4.6 mph - N/A   Overcast
10:35 AM 24.8 °F 16.9 °F 21.2 °F 86% 30.33 in 10.0 mi ESE 6.9 mph - N/A   Overcast
10:55 AM 24.8 °F 16.9 °F 21.2 °F 86% 30.33 in 10.0 mi ESE 6.9 mph - N/A   Overcast
11:15 AM 24.8 °F 17.9 °F 21.2 °F 86% 30.33 in 10.0 mi Variable 5.8 mph 11.5 mph N/A   Overcast
11:35 AM 24.8 °F 16.9 °F 23.0 °F 93% 30.32 in 10.0 mi ESE 6.9 mph 13.8 mph N/A   Overcast
11:55 AM 24.8 °F 19.1 °F 23.0 °F 93% 30.34 in 10.0 mi SE 4.6 mph - N/A   Overcast
12:15 PM 24.8 °F 16.1 °F 23.0 °F 93% 30.33 in 10.0 mi SE 8.1 mph - N/A   Overcast
12:35 PM 24.8 °F 16.9 °F 23.0 °F 93% 30.32 in 10.0 mi SSE 6.9 mph 12.7 mph N/A   Overcast
12:55 PM 26.6 °F 16.8 °F 23.0 °F 86% 30.31 in 10.0 mi SSE 10.4 mph - N/A   Overcast
1:15 PM 26.6 °F 17.5 °F 23.0 °F 86% 30.31 in 10.0 mi South 9.2 mph - N/A   Overcast
1:35 PM 26.6 °F 18.2 °F 23.0 °F 86% 30.32 in 10.0 mi South 8.1 mph - N/A   Overcast
1:55 PM 26.6 °F 17.5 °F 23.0 °F 86% 30.31 in 10.0 mi South 9.2 mph - N/A   Overcast
2:15 PM 28.4 °F 19.7 °F 24.8 °F 86% 30.29 in 10.0 mi SSE 9.2 mph - N/A   Overcast
2:35 PM 26.6 °F 17.5 °F 23.0 °F 86% 30.28 in 10.0 mi SSE 9.2 mph - N/A   Overcast
2:55 PM 28.4 °F 20.4 °F 23.0 °F 80% 30.27 in 10.0 mi South 8.1 mph 16.1 mph N/A   Overcast
3:15 PM 28.4 °F 18.5 °F 23.0 °F 80% 30.26 in 10.0 mi SE 11.5 mph 17.3 mph N/A   Overcast
3:35 PM 28.4 °F 17.0 °F 24.8 °F 86% 30.25 in 10.0 mi SSE 15.0 mph - N/A   Overcast
3:55 PM 28.4 °F 18.5 °F 24.8 °F 86% 30.24 in 10.0 mi SE 11.5 mph 17.3 mph N/A   Overcast
4:15 PM 26.6 °F 15.7 °F 23.0 °F 86% 30.24 in 10.0 mi SSE 12.7 mph - N/A   Overcast
4:35 PM 26.6 °F 15.2 °F 24.8 °F 93% 30.24 in 10.0 mi SSE 13.8 mph - N/A   Overcast
4:55 PM 26.6 °F 14.3 °F 24.8 °F 93% 30.23 in 10.0 mi SE 16.1 mph - N/A   Overcast
5:15 PM 26.6 °F 15.2 °F 24.8 °F 93% 30.23 in 10.0 mi SSE 13.8 mph 19.6 mph N/A   Overcast
5:35 PM 26.6 °F 15.2 °F 24.8 °F 93% 30.22 in 10.0 mi SE 13.8 mph - N/A   Overcast
5:55 PM 26.6 °F 13.8 °F 24.8 °F 93% 30.22 in 10.0 mi SSE 17.3 mph 23.0 mph N/A   Overcast
6:15 PM 26.6 °F 15.2 °F 24.8 °F 93% 30.23 in 10.0 mi SSE 13.8 mph - N/A   Overcast
6:35 PM 26.6 °F 15.7 °F 24.8 °F 93% 30.22 in 10.0 mi SSE 12.7 mph - N/A   Overcast
6:55 PM 26.6 °F 13.4 °F 24.8 °F 93% 30.21 in 10.0 mi SSE 18.4 mph - N/A   Overcast
7:15 PM 26.6 °F 14.3 °F 24.8 °F 93% 30.21 in 10.0 mi SE 16.1 mph - N/A   Overcast
7:35 PM 26.6 °F 13.8 °F 24.8 °F 93% 30.21 in 10.0 mi SSE 17.3 mph - N/A   Overcast
7:55 PM 26.6 °F 14.3 °F 24.8 °F 93% 30.21 in 10.0 mi SE 16.1 mph - N/A   Overcast
8:15 PM 26.6 °F 13.4 °F 24.8 °F 93% 30.21 in 10.0 mi SSE 18.4 mph - N/A   Overcast
8:35 PM 26.6 °F 14.3 °F 24.8 °F 93% 30.21 in 10.0 mi SSE 16.1 mph - N/A   Overcast
8:55 PM 26.6 °F 15.7 °F 24.8 °F 93% 30.20 in 10.0 mi SSE 12.7 mph - N/A   Overcast
9:15 PM 26.6 °F 14.3 °F 24.8 °F 93% 30.20 in 10.0 mi SSE 16.1 mph - N/A   Overcast
9:35 PM 26.6 °F 14.3 °F 24.8 °F 93% 30.21 in 8.0 mi SSE 16.1 mph 21.9 mph N/A   Overcast
9:55 PM 26.6 °F 13.8 °F 24.8 °F 93% 30.20 in 9.0 mi SSE 17.3 mph - N/A   Overcast
10:15 PM 26.6 °F 14.7 °F 24.8 °F 93% 30.19 in 10.0 mi SSE 15.0 mph 21.9 mph N/A   Overcast
10:35 PM 26.6 °F 14.7 °F 24.8 °F 93% 30.19 in 10.0 mi SSE 15.0 mph - N/A   Overcast
10:55 PM 26.6 °F 14.7 °F 24.8 °F 93% 30.18 in 10.0 mi SSE 15.0 mph - N/A   Overcast
11:15 PM 26.6 °F 14.7 °F 24.8 °F 93% 30.18 in 10.0 mi SSE 15.0 mph - N/A   Overcast
11:35 PM 26.6 °F 15.7 °F 24.8 °F 93% 30.19 in 9.0 mi SSE 12.7 mph 20.7 mph N/A   Overcast
11:55 PM 26.6 °F 15.2 °F 24.8 °F 93% 30.19 in 8.0 mi SSE 13.8 mph - N/A   Overcast